Terminal Aerodrome Forecast
Issued by NWS

Home | Current Version | Previous Version | Graphics & Text | Print | Product List | Glossary On
Versions: 1 2 3 4 5 6 7 8 9 10 11
691
FTUS43 KMPX 221120
TAFRNH
TAF
KRNH 221120Z 2212/2312 00000KT P6SM SKC
     FM221500 23004KT P6SM SKC
     FM221800 26008KT P6SM SCT250
     FM230200 21003KT P6SM SCT250=

USA.gov is the U.S. government's official web portal to all federal, state and local government web resources and services.